sensor_id;sensor_type;location;lat;lon;timestamp;P1;durP1;ratioP1;P2;durP2;ratioP2
71734;SDS011;59577;52.122;5.406;2024-03-17T00:02:21;4.63;;;1.50;;
71734;SDS011;59577;52.122;5.406;2024-03-17T00:04:47;2.78;;;1.25;;
71734;SDS011;59577;52.122;5.406;2024-03-17T00:07:13;4.47;;;1.50;;
71734;SDS011;59577;52.122;5.406;2024-03-17T00:09:39;3.50;;;1.52;;
71734;SDS011;59577;52.122;5.406;2024-03-17T00:12:06;3.10;;;1.70;;
71734;SDS011;59577;52.122;5.406;2024-03-17T00:14:32;2.25;;;1.30;;
71734;SDS011;59577;52.122;5.406;2024-03-17T00:17:00;3.03;;;1.38;;
71734;SDS011;59577;52.122;5.406;2024-03-17T00:19:26;4.82;;;1.38;;
71734;SDS011;59577;52.122;5.406;2024-03-17T00:21:52;2.37;;;1.23;;
71734;SDS011;59577;52.122;5.406;2024-03-17T00:24:18;3.95;;;1.55;;
71734;SDS011;59577;52.122;5.406;2024-03-17T00:26:45;3.80;;;1.20;;
71734;SDS011;59577;52.122;5.406;2024-03-17T00:29:11;4.97;;;1.20;;
71734;SDS011;59577;52.122;5.406;2024-03-17T00:31:36;4.30;;;1.37;;
71734;SDS011;59577;52.122;5.406;2024-03-17T00:34:02;4.87;;;1.20;;
71734;SDS011;59577;52.122;5.406;2024-03-17T00:36:29;7.50;;;1.70;;
71734;SDS011;59577;52.122;5.406;2024-03-17T00:38:55;4.82;;;1.60;;
71734;SDS011;59577;52.122;5.406;2024-03-17T00:41:22;4.18;;;1.25;;
71734;SDS011;59577;52.122;5.406;2024-03-17T00:43:47;2.90;;;1.60;;
71734;SDS011;59577;52.122;5.406;2024-03-17T00:46:13;4.57;;;1.40;;
71734;SDS011;59577;52.122;5.406;2024-03-17T00:48:38;7.88;;;1.95;;
71734;SDS011;59577;52.122;5.406;2024-03-17T00:51:04;3.77;;;1.50;;
71734;SDS011;59577;52.122;5.406;2024-03-17T00:53:30;3.78;;;1.77;;
71734;SDS011;59577;52.122;5.406;2024-03-17T00:55:55;4.10;;;1.77;;
71734;SDS011;59577;52.122;5.406;2024-03-17T00:58:25;2.88;;;1.52;;
71734;SDS011;59577;52.122;5.406;2024-03-17T01:00:51;3.73;;;1.83;;
71734;SDS011;59577;52.122;5.406;2024-03-17T01:03:16;5.80;;;1.92;;
71734;SDS011;59577;52.122;5.406;2024-03-17T01:05:42;5.07;;;2.23;;
71734;SDS011;59577;52.122;5.406;2024-03-17T01:08:13;4.70;;;2.03;;
71734;SDS011;59577;52.122;5.406;2024-03-17T01:10:39;11.10;;;2.83;;
71734;SDS011;59577;52.122;5.406;2024-03-17T01:13:06;4.15;;;1.85;;
71734;SDS011;59577;52.122;5.406;2024-03-17T01:15:32;6.97;;;2.15;;
71734;SDS011;59577;52.122;5.406;2024-03-17T01:17:59;4.43;;;2.50;;
71734;SDS011;59577;52.122;5.406;2024-03-17T01:20:25;5.72;;;2.15;;
71734;SDS011;59577;52.122;5.406;2024-03-17T01:22:53;3.97;;;2.07;;
71734;SDS011;59577;52.122;5.406;2024-03-17T01:25:18;4.97;;;1.83;;
71734;SDS011;59577;52.122;5.406;2024-03-17T01:27:45;3.50;;;1.80;;
71734;SDS011;59577;52.122;5.406;2024-03-17T01:30:10;5.20;;;2.13;;
71734;SDS011;59577;52.122;5.406;2024-03-17T01:32:36;10.50;;;1.92;;
71734;SDS011;59577;52.122;5.406;2024-03-17T01:35:02;3.57;;;1.70;;
71734;SDS011;59577;52.122;5.406;2024-03-17T01:37:28;4.50;;;2.22;;
71734;SDS011;59577;52.122;5.406;2024-03-17T01:40:00;5.07;;;2.47;;
71734;SDS011;59577;52.122;5.406;2024-03-17T01:42:25;5.23;;;2.27;;
71734;SDS011;59577;52.122;5.406;2024-03-17T01:44:51;4.85;;;2.25;;
71734;SDS011;59577;52.122;5.406;2024-03-17T01:47:17;10.80;;;2.47;;
71734;SDS011;59577;52.122;5.406;2024-03-17T01:49:44;4.90;;;2.10;;
71734;SDS011;59577;52.122;5.406;2024-03-17T01:52:13;4.85;;;2.47;;
71734;SDS011;59577;52.122;5.406;2024-03-17T01:54:40;4.20;;;2.33;;
71734;SDS011;59577;52.122;5.406;2024-03-17T01:57:07;3.80;;;2.10;;
71734;SDS011;59577;52.122;5.406;2024-03-17T01:59:33;4.70;;;2.20;;
71734;SDS011;59577;52.122;5.406;2024-03-17T02:01:58;6.77;;;2.73;;
71734;SDS011;59577;52.122;5.406;2024-03-17T02:04:25;6.30;;;2.28;;
71734;SDS011;59577;52.122;5.406;2024-03-17T02:06:50;4.40;;;2.23;;
71734;SDS011;59577;52.122;5.406;2024-03-17T02:09:16;10.90;;;2.70;;
71734;SDS011;59577;52.122;5.406;2024-03-17T02:11:43;3.53;;;1.90;;
71734;SDS011;59577;52.122;5.406;2024-03-17T02:14:09;7.33;;;1.67;;
71734;SDS011;59577;52.122;5.406;2024-03-17T02:16:36;4.50;;;2.08;;
71734;SDS011;59577;52.122;5.406;2024-03-17T02:19:01;4.87;;;2.27;;
71734;SDS011;59577;52.122;5.406;2024-03-17T02:21:27;3.55;;;1.98;;
71734;SDS011;59577;52.122;5.406;2024-03-17T02:23:53;5.00;;;2.17;;
71734;SDS011;59577;52.122;5.406;2024-03-17T02:26:19;2.90;;;1.80;;
71734;SDS011;59577;52.122;5.406;2024-03-17T02:28:45;6.95;;;2.08;;
71734;SDS011;59577;52.122;5.406;2024-03-17T02:31:13;4.10;;;2.33;;
71734;SDS011;59577;52.122;5.406;2024-03-17T02:33:40;2.30;;;1.67;;
71734;SDS011;59577;52.122;5.406;2024-03-17T02:36:06;5.50;;;1.98;;
71734;SDS011;59577;52.122;5.406;2024-03-17T02:38:35;5.33;;;2.10;;
71734;SDS011;59577;52.122;5.406;2024-03-17T02:41:19;10.57;;;2.20;;
71734;SDS011;59577;52.122;5.406;2024-03-17T02:43:46;3.88;;;2.47;;
71734;SDS011;59577;52.122;5.406;2024-03-17T02:46:12;4.55;;;2.50;;
71734;SDS011;59577;52.122;5.406;2024-03-17T02:48:42;3.70;;;2.17;;
71734;SDS011;59577;52.122;5.406;2024-03-17T02:51:16;3.42;;;2.13;;
71734;SDS011;59577;52.122;5.406;2024-03-17T02:53:44;4.65;;;2.33;;
71734;SDS011;59577;52.122;5.406;2024-03-17T02:56:11;6.03;;;2.45;;
71734;SDS011;59577;52.122;5.406;2024-03-17T02:58:38;3.80;;;2.45;;
71734;SDS011;59577;52.122;5.406;2024-03-17T03:01:04;8.93;;;2.20;;
71734;SDS011;59577;52.122;5.406;2024-03-17T03:03:31;5.63;;;2.60;;
71734;SDS011;59577;52.122;5.406;2024-03-17T03:05:57;4.60;;;2.50;;
71734;SDS011;59577;52.122;5.406;2024-03-17T03:08:24;5.60;;;2.25;;
71734;SDS011;59577;52.122;5.406;2024-03-17T03:10:50;4.40;;;2.53;;
71734;SDS011;59577;52.122;5.406;2024-03-17T03:13:16;6.80;;;3.13;;
71734;SDS011;59577;52.122;5.406;2024-03-17T03:15:41;6.47;;;2.50;;
71734;SDS011;59577;52.122;5.406;2024-03-17T03:18:07;8.05;;;3.42;;
71734;SDS011;59577;52.122;5.406;2024-03-17T03:20:33;7.67;;;3.40;;
71734;SDS011;59577;52.122;5.406;2024-03-17T03:22:59;5.88;;;3.03;;
71734;SDS011;59577;52.122;5.406;2024-03-17T03:25:25;5.57;;;3.60;;
71734;SDS011;59577;52.122;5.406;2024-03-17T03:27:52;9.40;;;3.87;;
71734;SDS011;59577;52.122;5.406;2024-03-17T03:30:18;6.43;;;3.40;;
71734;SDS011;59577;52.122;5.406;2024-03-17T03:32:46;7.13;;;4.00;;
71734;SDS011;59577;52.122;5.406;2024-03-17T03:35:13;15.43;;;4.07;;
71734;SDS011;59577;52.122;5.406;2024-03-17T03:37:40;9.57;;;3.95;;
71734;SDS011;59577;52.122;5.406;2024-03-17T03:40:06;7.10;;;3.53;;
71734;SDS011;59577;52.122;5.406;2024-03-17T03:42:43;9.90;;;3.83;;
71734;SDS011;59577;52.122;5.406;2024-03-17T03:45:09;11.38;;;4.13;;
71734;SDS011;59577;52.122;5.406;2024-03-17T03:47:38;4.60;;;3.40;;
71734;SDS011;59577;52.122;5.406;2024-03-17T03:50:06;5.65;;;3.78;;
71734;SDS011;59577;52.122;5.406;2024-03-17T03:52:34;4.23;;;3.40;;
71734;SDS011;59577;52.122;5.406;2024-03-17T03:55:00;6.47;;;3.95;;
71734;SDS011;59577;52.122;5.406;2024-03-17T03:57:26;5.20;;;3.22;;
71734;SDS011;59577;52.122;5.406;2024-03-17T03:59:54;8.75;;;4.25;;
71734;SDS011;59577;52.122;5.406;2024-03-17T04:02:20;6.33;;;3.63;;
71734;SDS011;59577;52.122;5.406;2024-03-17T04:04:46;9.93;;;5.00;;
71734;SDS011;59577;52.122;5.406;2024-03-17T04:07:13;6.65;;;4.32;;
71734;SDS011;59577;52.122;5.406;2024-03-17T04:09:38;12.27;;;4.95;;
71734;SDS011;59577;52.122;5.406;2024-03-17T04:12:04;8.32;;;4.70;;
71734;SDS011;59577;52.122;5.406;2024-03-17T04:14:30;7.03;;;4.63;;
71734;SDS011;59577;52.122;5.406;2024-03-17T04:16:56;10.30;;;5.17;;
71734;SDS011;59577;52.122;5.406;2024-03-17T04:19:22;10.93;;;5.32;;
71734;SDS011;59577;52.122;5.406;2024-03-17T04:21:47;7.20;;;4.17;;
71734;SDS011;59577;52.122;5.406;2024-03-17T04:24:13;8.63;;;3.70;;
71734;SDS011;59577;52.122;5.406;2024-03-17T04:26:38;7.68;;;4.80;;
71734;SDS011;59577;52.122;5.406;2024-03-17T04:29:04;9.43;;;4.97;;
71734;SDS011;59577;52.122;5.406;2024-03-17T04:31:31;8.57;;;4.65;;
71734;SDS011;59577;52.122;5.406;2024-03-17T04:33:57;12.17;;;5.37;;
71734;SDS011;59577;52.122;5.406;2024-03-17T04:36:22;7.72;;;4.28;;
71734;SDS011;59577;52.122;5.406;2024-03-17T04:38:48;13.00;;;6.10;;
71734;SDS011;59577;52.122;5.406;2024-03-17T04:41:16;8.63;;;4.37;;
71734;SDS011;59577;52.122;5.406;2024-03-17T04:43:42;10.60;;;5.15;;
71734;SDS011;59577;52.122;5.406;2024-03-17T04:46:08;8.20;;;4.90;;
71734;SDS011;59577;52.122;5.406;2024-03-17T04:48:37;10.98;;;5.40;;
71734;SDS011;59577;52.122;5.406;2024-03-17T04:51:03;6.80;;;4.57;;
71734;SDS011;59577;52.122;5.406;2024-03-17T04:53:29;10.55;;;5.00;;
71734;SDS011;59577;52.122;5.406;2024-03-17T04:56:04;9.02;;;5.32;;
71734;SDS011;59577;52.122;5.406;2024-03-17T04:58:31;9.67;;;5.30;;
71734;SDS011;59577;52.122;5.406;2024-03-17T05:00:57;8.52;;;5.07;;
71734;SDS011;59577;52.122;5.406;2024-03-17T05:03:27;9.85;;;4.57;;
71734;SDS011;59577;52.122;5.406;2024-03-17T05:06:02;6.67;;;4.43;;
71734;SDS011;59577;52.122;5.406;2024-03-17T05:08:29;9.07;;;5.50;;
71734;SDS011;59577;52.122;5.406;2024-03-17T05:10:59;8.23;;;5.53;;
71734;SDS011;59577;52.122;5.406;2024-03-17T05:13:26;11.02;;;6.03;;
71734;SDS011;59577;52.122;5.406;2024-03-17T05:15:53;7.40;;;5.17;;
71734;SDS011;59577;52.122;5.406;2024-03-17T05:18:19;12.60;;;5.25;;
71734;SDS011;59577;52.122;5.406;2024-03-17T05:20:46;7.05;;;5.22;;
71734;SDS011;59577;52.122;5.406;2024-03-17T05:23:14;8.60;;;5.45;;
71734;SDS011;59577;52.122;5.406;2024-03-17T05:25:39;9.77;;;5.63;;
71734;SDS011;59577;52.122;5.406;2024-03-17T05:28:05;8.03;;;5.10;;
71734;SDS011;59577;52.122;5.406;2024-03-17T05:30:30;7.07;;;5.15;;
71734;SDS011;59577;52.122;5.406;2024-03-17T05:32:56;7.93;;;5.07;;
71734;SDS011;59577;52.122;5.406;2024-03-17T05:35:22;8.23;;;5.60;;
71734;SDS011;59577;52.122;5.406;2024-03-17T05:37:50;7.87;;;5.63;;
71734;SDS011;59577;52.122;5.406;2024-03-17T05:40:16;8.93;;;5.75;;
71734;SDS011;59577;52.122;5.406;2024-03-17T05:42:41;8.43;;;5.83;;
71734;SDS011;59577;52.122;5.406;2024-03-17T05:45:09;11.85;;;6.25;;
71734;SDS011;59577;52.122;5.406;2024-03-17T05:47:39;12.57;;;5.55;;
71734;SDS011;59577;52.122;5.406;2024-03-17T05:50:06;9.50;;;5.67;;
71734;SDS011;59577;52.122;5.406;2024-03-17T05:52:32;11.02;;;5.82;;
71734;SDS011;59577;52.122;5.406;2024-03-17T05:54:58;9.90;;;5.82;;
71734;SDS011;59577;52.122;5.406;2024-03-17T05:57:23;10.63;;;5.70;;
71734;SDS011;59577;52.122;5.406;2024-03-17T05:59:49;10.32;;;6.00;;
71734;SDS011;59577;52.122;5.406;2024-03-17T06:02:15;11.80;;;5.77;;
71734;SDS011;59577;52.122;5.406;2024-03-17T06:04:41;7.05;;;5.47;;
71734;SDS011;59577;52.122;5.406;2024-03-17T06:07:07;7.40;;;5.40;;
71734;SDS011;59577;52.122;5.406;2024-03-17T06:09:33;9.70;;;5.85;;
71734;SDS011;59577;52.122;5.406;2024-03-17T06:11:58;9.57;;;6.00;;
71734;SDS011;59577;52.122;5.406;2024-03-17T06:14:24;10.38;;;5.80;;
71734;SDS011;59577;52.122;5.406;2024-03-17T06:16:50;11.77;;;5.70;;
71734;SDS011;59577;52.122;5.406;2024-03-17T06:19:15;11.73;;;6.07;;
71734;SDS011;59577;52.122;5.406;2024-03-17T06:21:41;11.00;;;5.73;;
71734;SDS011;59577;52.122;5.406;2024-03-17T06:24:06;8.50;;;6.07;;
71734;SDS011;59577;52.122;5.406;2024-03-17T06:26:32;10.23;;;6.10;;
71734;SDS011;59577;52.122;5.406;2024-03-17T06:29:00;7.63;;;5.80;;
71734;SDS011;59577;52.122;5.406;2024-03-17T06:31:25;7.43;;;6.22;;
71734;SDS011;59577;52.122;5.406;2024-03-17T06:33:51;9.40;;;6.33;;
71734;SDS011;59577;52.122;5.406;2024-03-17T06:36:16;9.77;;;6.57;;
71734;SDS011;59577;52.122;5.406;2024-03-17T06:38:42;10.52;;;5.65;;
71734;SDS011;59577;52.122;5.406;2024-03-17T06:41:11;11.15;;;6.13;;
71734;SDS011;59577;52.122;5.406;2024-03-17T06:43:40;10.23;;;6.07;;
71734;SDS011;59577;52.122;5.406;2024-03-17T06:46:07;9.07;;;5.60;;
71734;SDS011;59577;52.122;5.406;2024-03-17T06:48:33;13.00;;;5.97;;
71734;SDS011;59577;52.122;5.406;2024-03-17T06:50:59;9.13;;;5.78;;
71734;SDS011;59577;52.122;5.406;2024-03-17T06:53:24;5.50;;;4.93;;
71734;SDS011;59577;52.122;5.406;2024-03-17T06:55:58;8.13;;;5.70;;
71734;SDS011;59577;52.122;5.406;2024-03-17T06:58:25;9.85;;;6.00;;
71734;SDS011;59577;52.122;5.406;2024-03-17T07:00:56;8.38;;;5.72;;
71734;SDS011;59577;52.122;5.406;2024-03-17T07:03:24;8.73;;;5.78;;
71734;SDS011;59577;52.122;5.406;2024-03-17T07:05:54;6.93;;;5.70;;
71734;SDS011;59577;52.122;5.406;2024-03-17T07:08:21;10.13;;;5.97;;
71734;SDS011;59577;52.122;5.406;2024-03-17T07:11:01;8.13;;;5.65;;
71734;SDS011;59577;52.122;5.406;2024-03-17T07:13:31;6.20;;;4.85;;
71734;SDS011;59577;52.122;5.406;2024-03-17T07:16:01;9.05;;;5.18;;
71734;SDS011;59577;52.122;5.406;2024-03-17T07:18:28;9.67;;;5.80;;
71734;SDS011;59577;52.122;5.406;2024-03-17T07:20:58;8.73;;;5.25;;
71734;SDS011;59577;52.122;5.406;2024-03-17T07:23:29;10.82;;;5.78;;
71734;SDS011;59577;52.122;5.406;2024-03-17T07:25:59;9.45;;;5.22;;
71734;SDS011;59577;52.122;5.406;2024-03-17T07:28:25;9.63;;;5.38;;
71734;SDS011;59577;52.122;5.406;2024-03-17T07:30:55;7.33;;;5.10;;
71734;SDS011;59577;52.122;5.406;2024-03-17T07:33:22;6.20;;;4.85;;
71734;SDS011;59577;52.122;5.406;2024-03-17T07:35:49;8.45;;;5.13;;
71734;SDS011;59577;52.122;5.406;2024-03-17T07:38:19;6.67;;;5.27;;
71734;SDS011;59577;52.122;5.406;2024-03-17T07:40:45;7.45;;;5.45;;
71734;SDS011;59577;52.122;5.406;2024-03-17T07:43:20;8.15;;;5.05;;
71734;SDS011;59577;52.122;5.406;2024-03-17T07:45:45;7.43;;;4.67;;
71734;SDS011;59577;52.122;5.406;2024-03-17T07:48:12;7.88;;;5.18;;
71734;SDS011;59577;52.122;5.406;2024-03-17T07:50:38;5.70;;;4.70;;
71734;SDS011;59577;52.122;5.406;2024-03-17T07:53:03;7.68;;;4.82;;
71734;SDS011;59577;52.122;5.406;2024-03-17T07:55:29;6.25;;;4.43;;
71734;SDS011;59577;52.122;5.406;2024-03-17T07:57:56;5.95;;;4.57;;
71734;SDS011;59577;52.122;5.406;2024-03-17T08:00:22;8.27;;;5.00;;
71734;SDS011;59577;52.122;5.406;2024-03-17T08:02:47;6.00;;;4.07;;
71734;SDS011;59577;52.122;5.406;2024-03-17T08:05:13;7.07;;;5.33;;
71734;SDS011;59577;52.122;5.406;2024-03-17T08:07:39;6.63;;;4.32;;
71734;SDS011;59577;52.122;5.406;2024-03-17T08:10:07;10.03;;;5.57;;
71734;SDS011;59577;52.122;5.406;2024-03-17T08:12:33;11.43;;;6.18;;
71734;SDS011;59577;52.122;5.406;2024-03-17T08:14:59;12.77;;;9.48;;
71734;SDS011;59577;52.122;5.406;2024-03-17T08:17:25;18.83;;;11.30;;
71734;SDS011;59577;52.122;5.406;2024-03-17T08:19:51;5.28;;;4.53;;
71734;SDS011;59577;52.122;5.406;2024-03-17T08:22:17;6.55;;;5.07;;
71734;SDS011;59577;52.122;5.406;2024-03-17T08:24:43;6.25;;;5.05;;
71734;SDS011;59577;52.122;5.406;2024-03-17T08:27:08;5.97;;;5.23;;
71734;SDS011;59577;52.122;5.406;2024-03-17T08:29:34;5.63;;;4.40;;
71734;SDS011;59577;52.122;5.406;2024-03-17T08:32:00;5.55;;;4.57;;
71734;SDS011;59577;52.122;5.406;2024-03-17T08:34:25;7.40;;;4.47;;
71734;SDS011;59577;52.122;5.406;2024-03-17T08:36:51;8.93;;;3.97;;
71734;SDS011;59577;52.122;5.406;2024-03-17T08:39:16;6.80;;;4.30;;
71734;SDS011;59577;52.122;5.406;2024-03-17T08:41:42;6.00;;;4.47;;
71734;SDS011;59577;52.122;5.406;2024-03-17T08:44:09;8.48;;;4.70;;
71734;SDS011;59577;52.122;5.406;2024-03-17T08:46:35;8.27;;;4.70;;
71734;SDS011;59577;52.122;5.406;2024-03-17T08:49:01;7.57;;;4.90;;
71734;SDS011;59577;52.122;5.406;2024-03-17T08:51:26;6.97;;;4.20;;
71734;SDS011;59577;52.122;5.406;2024-03-17T08:53:53;6.43;;;4.60;;
71734;SDS011;59577;52.122;5.406;2024-03-17T08:56:19;8.57;;;4.57;;
71734;SDS011;59577;52.122;5.406;2024-03-17T08:58:46;5.80;;;4.38;;
71734;SDS011;59577;52.122;5.406;2024-03-17T09:01:12;6.97;;;4.90;;
71734;SDS011;59577;52.122;5.406;2024-03-17T09:03:40;6.55;;;4.70;;
71734;SDS011;59577;52.122;5.406;2024-03-17T09:06:15;7.53;;;4.80;;
71734;SDS011;59577;52.122;5.406;2024-03-17T09:08:42;5.60;;;4.97;;
71734;SDS011;59577;52.122;5.406;2024-03-17T09:11:14;6.15;;;4.70;;
71734;SDS011;59577;52.122;5.406;2024-03-17T09:13:40;6.93;;;4.97;;
71734;SDS011;59577;52.122;5.406;2024-03-17T09:16:05;9.77;;;4.68;;
71734;SDS011;59577;52.122;5.406;2024-03-17T09:18:32;7.40;;;4.87;;
71734;SDS011;59577;52.122;5.406;2024-03-17T09:21:02;8.27;;;4.63;;
71734;SDS011;59577;52.122;5.406;2024-03-17T09:23:35;6.88;;;4.82;;
71734;SDS011;59577;52.122;5.406;2024-03-17T09:28:30;8.17;;;5.70;;
71734;SDS011;59577;52.122;5.406;2024-03-17T09:30:57;5.57;;;4.15;;
71734;SDS011;59577;52.122;5.406;2024-03-17T09:33:24;6.95;;;4.75;;
71734;SDS011;59577;52.122;5.406;2024-03-17T09:36:03;8.00;;;4.70;;
71734;SDS011;59577;52.122;5.406;2024-03-17T09:38:33;7.72;;;5.18;;
71734;SDS011;59577;52.122;5.406;2024-03-17T09:41:00;5.20;;;4.33;;
71734;SDS011;59577;52.122;5.406;2024-03-17T09:43:26;6.07;;;4.88;;
71734;SDS011;59577;52.122;5.406;2024-03-17T09:45:53;5.50;;;4.32;;
71734;SDS011;59577;52.122;5.406;2024-03-17T09:48:25;8.40;;;4.20;;
71734;SDS011;59577;52.122;5.406;2024-03-17T09:50:55;6.25;;;4.47;;
71734;SDS011;59577;52.122;5.406;2024-03-17T09:53:30;6.30;;;4.17;;
71734;SDS011;59577;52.122;5.406;2024-03-17T09:56:11;7.28;;;4.18;;
71734;SDS011;59577;52.122;5.406;2024-03-17T09:58:39;5.30;;;4.72;;
71734;SDS011;59577;52.122;5.406;2024-03-17T10:01:04;5.72;;;4.35;;
71734;SDS011;59577;52.122;5.406;2024-03-17T10:06:17;5.53;;;4.57;;
71734;SDS011;59577;52.122;5.406;2024-03-17T10:08:48;7.38;;;4.25;;
71734;SDS011;59577;52.122;5.406;2024-03-17T10:11:16;7.97;;;4.63;;
71734;SDS011;59577;52.122;5.406;2024-03-17T10:13:44;6.20;;;4.38;;
71734;SDS011;59577;52.122;5.406;2024-03-17T10:16:21;4.85;;;4.22;;
71734;SDS011;59577;52.122;5.406;2024-03-17T10:18:51;6.63;;;4.37;;
71734;SDS011;59577;52.122;5.406;2024-03-17T10:21:32;7.00;;;4.13;;
71734;SDS011;59577;52.122;5.406;2024-03-17T10:24:11;5.63;;;4.05;;
71734;SDS011;59577;52.122;5.406;2024-03-17T10:26:47;6.47;;;4.07;;
71734;SDS011;59577;52.122;5.406;2024-03-17T10:29:29;5.32;;;4.25;;
71734;SDS011;59577;52.122;5.406;2024-03-17T10:31:57;6.30;;;4.25;;
71734;SDS011;59577;52.122;5.406;2024-03-17T10:34:25;7.72;;;5.03;;
71734;SDS011;59577;52.122;5.406;2024-03-17T10:37:05;7.82;;;4.30;;
71734;SDS011;59577;52.122;5.406;2024-03-17T10:39:38;6.30;;;4.57;;
71734;SDS011;59577;52.122;5.406;2024-03-17T10:42:05;6.20;;;4.38;;
71734;SDS011;59577;52.122;5.406;2024-03-17T10:44:31;6.55;;;4.57;;
71734;SDS011;59577;52.122;5.406;2024-03-17T10:46:59;7.00;;;4.78;;
71734;SDS011;59577;52.122;5.406;2024-03-17T10:49:30;8.05;;;4.38;;
71734;SDS011;59577;52.122;5.406;2024-03-17T10:52:01;7.07;;;4.73;;
71734;SDS011;59577;52.122;5.406;2024-03-17T10:54:29;6.10;;;4.30;;
71734;SDS011;59577;52.122;5.406;2024-03-17T10:59:52;7.10;;;3.90;;
71734;SDS011;59577;52.122;5.406;2024-03-17T11:02:22;5.65;;;4.13;;
71734;SDS011;59577;52.122;5.406;2024-03-17T11:04:50;9.00;;;4.27;;
71734;SDS011;59577;52.122;5.406;2024-03-17T11:07:17;6.35;;;4.07;;
71734;SDS011;59577;52.122;5.406;2024-03-17T11:09:45;7.90;;;4.18;;
71734;SDS011;59577;52.122;5.406;2024-03-17T11:17:44;6.77;;;4.63;;
71734;SDS011;59577;52.122;5.406;2024-03-17T11:20:21;6.35;;;4.28;;
71734;SDS011;59577;52.122;5.406;2024-03-17T11:22:52;8.90;;;3.67;;
71734;SDS011;59577;52.122;5.406;2024-03-17T11:27:51;7.75;;;4.03;;
71734;SDS011;59577;52.122;5.406;2024-03-17T11:44:15;6.77;;;4.27;;
71734;SDS011;59577;52.122;5.406;2024-03-17T11:46:55;6.53;;;3.90;;
71734;SDS011;59577;52.122;5.406;2024-03-17T11:49:39;5.10;;;4.05;;
71734;SDS011;59577;52.122;5.406;2024-03-17T11:52:15;5.50;;;4.43;;
71734;SDS011;59577;52.122;5.406;2024-03-17T11:54:45;6.53;;;4.10;;
71734;SDS011;59577;52.122;5.406;2024-03-17T11:57:14;5.03;;;4.17;;
71734;SDS011;59577;52.122;5.406;2024-03-17T11:59:46;5.45;;;4.10;;
71734;SDS011;59577;52.122;5.406;2024-03-17T12:02:27;6.18;;;4.15;;
71734;SDS011;59577;52.122;5.406;2024-03-17T12:05:00;7.00;;;3.83;;
71734;SDS011;59577;52.122;5.406;2024-03-17T12:07:27;6.18;;;4.20;;
71734;SDS011;59577;52.122;5.406;2024-03-17T12:09:55;5.22;;;3.67;;
71734;SDS011;59577;52.122;5.406;2024-03-17T12:12:23;4.72;;;3.83;;
71734;SDS011;59577;52.122;5.406;2024-03-17T12:14:51;7.32;;;4.60;;
71734;SDS011;59577;52.122;5.406;2024-03-17T12:17:20;11.67;;;6.67;;
71734;SDS011;59577;52.122;5.406;2024-03-17T12:19:47;7.85;;;4.30;;
71734;SDS011;59577;52.122;5.406;2024-03-17T12:22:17;6.00;;;3.95;;
71734;SDS011;59577;52.122;5.406;2024-03-17T12:24:50;7.30;;;4.03;;
71734;SDS011;59577;52.122;5.406;2024-03-17T12:27:18;5.53;;;4.05;;
71734;SDS011;59577;52.122;5.406;2024-03-17T12:29:44;12.27;;;4.90;;
71734;SDS011;59577;52.122;5.406;2024-03-17T12:32:16;6.07;;;4.55;;
71734;SDS011;59577;52.122;5.406;2024-03-17T12:34:51;6.10;;;4.35;;
71734;SDS011;59577;52.122;5.406;2024-03-17T12:37:18;4.70;;;3.80;;
71734;SDS011;59577;52.122;5.406;2024-03-17T12:39:48;4.00;;;3.40;;
71734;SDS011;59577;52.122;5.406;2024-03-17T12:42:15;4.63;;;3.47;;
71734;SDS011;59577;52.122;5.406;2024-03-17T12:47:26;5.07;;;4.10;;
71734;SDS011;59577;52.122;5.406;2024-03-17T12:49:57;5.63;;;3.78;;
71734;SDS011;59577;52.122;5.406;2024-03-17T12:52:24;4.30;;;3.90;;
71734;SDS011;59577;52.122;5.406;2024-03-17T12:57:51;5.53;;;3.97;;
71734;SDS011;59577;52.122;5.406;2024-03-17T13:01:05;5.20;;;3.75;;
71734;SDS011;59577;52.122;5.406;2024-03-17T13:03:35;6.50;;;4.55;;
71734;SDS011;59577;52.122;5.406;2024-03-17T13:06:02;5.28;;;4.30;;
71734;SDS011;59577;52.122;5.406;2024-03-17T13:08:31;10.70;;;4.73;;
71734;SDS011;59577;52.122;5.406;2024-03-17T13:10:57;7.63;;;4.65;;
71734;SDS011;59577;52.122;5.406;2024-03-17T13:13:23;4.47;;;3.80;;
71734;SDS011;59577;52.122;5.406;2024-03-17T13:15:49;5.97;;;3.97;;
71734;SDS011;59577;52.122;5.406;2024-03-17T13:18:18;9.80;;;4.30;;
71734;SDS011;59577;52.122;5.406;2024-03-17T13:20:48;4.30;;;3.90;;
71734;SDS011;59577;52.122;5.406;2024-03-17T13:23:15;5.90;;;4.28;;
71734;SDS011;59577;52.122;5.406;2024-03-17T13:25:41;7.80;;;4.43;;
71734;SDS011;59577;52.122;5.406;2024-03-17T13:28:08;8.15;;;4.75;;
71734;SDS011;59577;52.122;5.406;2024-03-17T13:30:35;6.97;;;4.60;;
71734;SDS011;59577;52.122;5.406;2024-03-17T13:33:05;6.20;;;4.05;;
71734;SDS011;59577;52.122;5.406;2024-03-17T13:35:36;5.90;;;4.25;;
71734;SDS011;59577;52.122;5.406;2024-03-17T13:38:04;7.20;;;4.55;;
71734;SDS011;59577;52.122;5.406;2024-03-17T13:40:32;9.63;;;4.03;;
71734;SDS011;59577;52.122;5.406;2024-03-17T13:42:58;5.67;;;4.37;;
71734;SDS011;59577;52.122;5.406;2024-03-17T13:45:25;5.57;;;4.00;;
71734;SDS011;59577;52.122;5.406;2024-03-17T13:47:57;6.53;;;4.13;;
71734;SDS011;59577;52.122;5.406;2024-03-17T13:50:26;8.15;;;4.13;;
71734;SDS011;59577;52.122;5.406;2024-03-17T13:52:52;7.00;;;4.20;;
71734;SDS011;59577;52.122;5.406;2024-03-17T13:55:19;4.88;;;3.83;;
71734;SDS011;59577;52.122;5.406;2024-03-17T13:57:46;6.38;;;4.40;;
71734;SDS011;59577;52.122;5.406;2024-03-17T14:00:14;4.80;;;4.00;;
71734;SDS011;59577;52.122;5.406;2024-03-17T14:02:45;6.50;;;4.53;;
71734;SDS011;59577;52.122;5.406;2024-03-17T14:05:15;5.80;;;4.32;;
71734;SDS011;59577;52.122;5.406;2024-03-17T14:07:42;6.22;;;3.80;;
71734;SDS011;59577;52.122;5.406;2024-03-17T14:10:09;6.18;;;3.90;;
71734;SDS011;59577;52.122;5.406;2024-03-17T14:12:36;6.60;;;4.37;;
71734;SDS011;59577;52.122;5.406;2024-03-17T14:15:05;11.30;;;3.95;;
71734;SDS011;59577;52.122;5.406;2024-03-17T14:17:36;7.20;;;4.05;;
71734;SDS011;59577;52.122;5.406;2024-03-17T14:20:03;6.35;;;4.20;;
71734;SDS011;59577;52.122;5.406;2024-03-17T14:22:31;5.63;;;4.10;;
71734;SDS011;59577;52.122;5.406;2024-03-17T14:24:57;6.50;;;3.97;;
71734;SDS011;59577;52.122;5.406;2024-03-17T14:27:22;6.37;;;3.83;;
71734;SDS011;59577;52.122;5.406;2024-03-17T14:29:48;6.13;;;3.90;;
71734;SDS011;59577;52.122;5.406;2024-03-17T14:32:14;5.93;;;4.15;;
71734;SDS011;59577;52.122;5.406;2024-03-17T14:34:39;6.13;;;4.70;;
71734;SDS011;59577;52.122;5.406;2024-03-17T14:37:05;7.60;;;4.55;;
71734;SDS011;59577;52.122;5.406;2024-03-17T14:39:30;5.30;;;4.00;;
71734;SDS011;59577;52.122;5.406;2024-03-17T14:41:56;5.43;;;3.80;;
71734;SDS011;59577;52.122;5.406;2024-03-17T14:44:22;6.88;;;4.25;;
71734;SDS011;59577;52.122;5.406;2024-03-17T14:46:48;5.00;;;4.50;;
71734;SDS011;59577;52.122;5.406;2024-03-17T14:49:17;7.57;;;4.13;;
71734;SDS011;59577;52.122;5.406;2024-03-17T14:51:43;8.02;;;4.10;;
71734;SDS011;59577;52.122;5.406;2024-03-17T14:54:09;7.13;;;3.75;;
71734;SDS011;59577;52.122;5.406;2024-03-17T14:56:35;5.90;;;4.10;;
71734;SDS011;59577;52.122;5.406;2024-03-17T14:59:01;5.47;;;4.25;;
71734;SDS011;59577;52.122;5.406;2024-03-17T15:01:27;6.50;;;3.97;;
71734;SDS011;59577;52.122;5.406;2024-03-17T15:03:57;7.40;;;3.90;;
71734;SDS011;59577;52.122;5.406;2024-03-17T15:06:24;5.47;;;3.90;;
71734;SDS011;59577;52.122;5.406;2024-03-17T15:08:50;6.38;;;3.20;;
71734;SDS011;59577;52.122;5.406;2024-03-17T15:11:16;4.27;;;3.73;;
71734;SDS011;59577;52.122;5.406;2024-03-17T15:13:43;4.28;;;3.83;;
71734;SDS011;59577;52.122;5.406;2024-03-17T15:16:09;4.88;;;3.50;;
71734;SDS011;59577;52.122;5.406;2024-03-17T15:18:34;10.13;;;4.17;;
71734;SDS011;59577;52.122;5.406;2024-03-17T15:21:00;7.75;;;3.90;;
71734;SDS011;59577;52.122;5.406;2024-03-17T15:23:29;4.87;;;3.67;;
71734;SDS011;59577;52.122;5.406;2024-03-17T15:26:01;7.57;;;4.28;;